createdAt,value
2019-06-15T00:03:00.659Z,19.99
2019-06-15T00:08:04.853Z,20.01
2019-06-15T00:13:08.390Z,19.86
2019-06-15T00:18:11.192Z,19.90
2019-06-15T00:23:14.638Z,19.97
2019-06-15T00:28:17.788Z,20.02
2019-06-15T00:33:21.032Z,19.92
2019-06-15T00:38:24.154Z,19.93
2019-06-15T00:43:27.296Z,19.96
2019-06-15T00:48:30.168Z,20.05
2019-06-15T00:53:33.326Z,19.65
2019-06-15T00:58:35.807Z,19.75
2019-06-15T01:03:39.322Z,19.76
2019-06-15T01:08:42.159Z,19.81
2019-06-15T01:13:45.287Z,19.85
2019-06-15T01:18:48.686Z,19.73
2019-06-15T01:23:51.480Z,19.39
2019-06-15T01:28:54.703Z,19.57
2019-06-15T01:33:58.137Z,19.43
2019-06-15T01:39:01.372Z,19.70
2019-06-15T01:44:05.119Z,19.83
2019-06-15T01:49:08.205Z,19.83
2019-06-15T01:54:11.620Z,19.92
2019-06-15T01:59:14.759Z,19.71
2019-06-15T02:04:17.561Z,19.65
2019-06-15T02:09:20.680Z,19.66
2019-06-15T02:14:23.137Z,19.67
2019-06-15T02:19:26.571Z,19.59
2019-06-15T02:24:29.963Z,19.74
2019-06-15T02:29:33.071Z,19.77
2019-06-15T02:34:36.486Z,19.76
2019-06-15T02:39:39.606Z,19.80
2019-06-15T02:44:42.711Z,19.81
2019-06-15T02:49:46.201Z,19.63
2019-06-15T02:54:49.043Z,19.35
2019-06-15T02:59:52.487Z,19.51
2019-06-15T03:04:55.652Z,19.60
2019-06-15T03:09:59.348Z,19.57
2019-06-15T03:15:02.489Z,19.52
2019-06-15T03:20:05.665Z,19.61
2019-06-15T03:25:10.388Z,19.67
2019-06-15T03:30:13.410Z,19.70
2019-06-15T03:35:16.748Z,19.68
2019-06-15T03:40:19.518Z,19.71
2019-06-15T03:45:22.450Z,19.72
2019-06-15T03:50:25.586Z,19.79
2019-06-15T03:55:28.686Z,19.69
2019-06-15T04:00:59.340Z,19.73
2019-06-15T04:06:02.758Z,19.77
2019-06-15T04:11:05.897Z,19.63
2019-06-15T04:16:09.384Z,19.71
2019-06-15T04:21:12.838Z,19.77
2019-06-15T04:26:16.271Z,19.79
2019-06-15T04:31:19.397Z,19.79
2019-06-15T04:36:22.524Z,19.75
2019-06-15T04:41:25.337Z,19.85
2019-06-15T04:46:28.501Z,19.81
2019-06-15T04:51:31.609Z,19.74
2019-06-15T04:56:34.746Z,19.60
2019-06-15T05:01:37.864Z,19.57
2019-06-15T05:06:40.709Z,19.48
2019-06-15T05:11:44.122Z,19.53
2019-06-15T05:16:47.241Z,19.20
2019-06-15T05:21:50.627Z,19.09
2019-06-15T05:27:05.544Z,19.34
2019-06-15T05:31:58.752Z,19.48
2019-06-15T05:37:01.909Z,19.52
2019-06-15T05:42:04.887Z,19.67
2019-06-15T05:47:08.017Z,19.67
2019-06-15T05:52:11.483Z,19.59
2019-06-15T05:57:21.462Z,19.64
2019-06-15T06:02:21.680Z,19.57
2019-06-15T06:07:23.490Z,19.58
2019-06-15T06:12:26.481Z,19.60
2019-06-15T06:17:29.333Z,19.59
2019-06-15T06:22:32.460Z,19.52
2019-06-15T06:27:36.893Z,19.62
2019-06-15T06:32:40.556Z,19.58
2019-06-15T06:37:43.096Z,19.59
2019-06-15T06:42:45.907Z,19.58
2019-06-15T06:47:49.066Z,19.51
2019-06-15T06:52:52.198Z,19.39
2019-06-15T06:57:57.256Z,18.99
2019-06-15T07:03:00.693Z,18.64
2019-06-15T07:08:03.873Z,18.85
2019-06-15T07:13:06.970Z,19.04
2019-06-15T07:18:09.795Z,19.21
2019-06-15T07:23:13.225Z,19.04
2019-06-15T07:28:16.040Z,18.93
2019-06-15T07:33:19.200Z,18.77
2019-06-15T07:38:22.048Z,18.93
2019-06-15T07:43:24.843Z,18.78
2019-06-15T07:48:28.019Z,18.83
2019-06-15T07:53:30.832Z,19.03
2019-06-15T07:58:33.987Z,19.02
2019-06-15T08:03:37.436Z,19.06
2019-06-15T08:08:40.298Z,18.89
2019-06-15T08:13:43.237Z,18.95
2019-06-15T08:18:46.099Z,19.03
2019-06-15T08:23:49.244Z,19.10
2019-06-15T08:35:00.506Z,19.51
2019-06-15T08:40:04.754Z,19.49
2019-06-15T08:45:08.395Z,19.58
2019-06-15T08:50:11.902Z,19.52
2019-06-15T08:55:14.783Z,19.49
2019-06-15T09:00:18.540Z,19.64
2019-06-15T09:05:21.532Z,19.55
2019-06-15T09:10:24.543Z,19.57
2019-06-15T09:15:35.900Z,19.41
2019-06-15T09:20:39.537Z,19.35
2019-06-15T09:25:41.733Z,19.23
2019-06-15T09:30:45.331Z,19.28
2019-06-15T09:35:48.954Z,19.37
2019-06-15T09:40:52.497Z,19.21
2019-06-15T09:45:56.028Z,19.10
2019-06-15T09:50:59.853Z,19.26
2019-06-15T09:56:02.900Z,19.01
2019-06-15T10:01:05.961Z,19.09
2019-06-15T10:06:11.691Z,18.85
2019-06-15T10:11:14.840Z,18.78
2019-06-15T10:16:19.506Z,18.78
2019-06-15T10:21:22.810Z,18.70
2019-06-15T10:26:25.765Z,18.92
2019-06-15T10:31:29.508Z,18.82
2019-06-15T10:36:32.815Z,18.81
2019-06-15T10:41:36.222Z,18.74
2019-06-15T10:46:40.001Z,18.79
2019-06-15T10:51:44.321Z,18.71
2019-06-15T10:56:47.662Z,18.81
2019-06-15T11:01:50.982Z,18.76
2019-06-15T11:06:54.112Z,18.77
2019-06-15T11:11:57.968Z,18.80
2019-06-15T11:17:02.052Z,18.80
2019-06-15T11:22:07.226Z,18.20
2019-06-15T11:27:10.469Z,18.34
2019-06-15T11:32:13.093Z,18.61
2019-06-15T11:37:15.717Z,18.77
2019-06-15T11:42:20.583Z,18.92
2019-06-15T11:47:24.240Z,18.83
2019-06-15T11:52:27.824Z,18.90
2019-06-15T11:57:31.093Z,19.27
2019-06-15T12:02:34.345Z,19.57
2019-06-15T12:07:37.311Z,19.69
2019-06-15T12:12:40.995Z,19.90
2019-06-15T12:17:43.973Z,19.93
2019-06-15T12:27:50.284Z,20.32
2019-06-15T12:32:53.859Z,20.39
2019-06-15T12:37:57.533Z,20.08
2019-06-15T12:43:00.837Z,20.28
2019-06-15T12:48:04.365Z,20.30
2019-06-15T12:53:08.131Z,20.43
2019-06-15T12:58:11.805Z,21.03
2019-06-15T13:03:14.770Z,21.32
2019-06-15T13:08:17.721Z,21.31
2019-06-15T13:13:21.212Z,21.19
2019-06-15T13:18:24.510Z,21.22
2019-06-15T13:23:28.140Z,21.44
2019-06-15T13:28:31.506Z,21.08
2019-06-15T13:33:35.132Z,20.96
2019-06-15T13:38:38.611Z,20.99
2019-06-15T13:43:44.578Z,21.21
2019-06-15T13:48:48.217Z,21.11
2019-06-15T13:53:51.274Z,21.29
2019-06-15T13:58:54.562Z,21.10
2019-06-15T14:03:58.315Z,20.99
2019-06-15T14:09:05.088Z,21.01
2019-06-15T14:14:06.512Z,20.96
2019-06-15T14:19:11.112Z,21.25
2019-06-15T14:24:14.815Z,21.23
2019-06-15T14:29:17.769Z,21.07
2019-06-15T14:34:23.812Z,21.22
2019-06-15T14:39:26.854Z,21.06
2019-06-15T14:44:30.482Z,21.16
2019-06-15T14:49:33.905Z,21.01
2019-06-15T14:54:37.405Z,21.14
2019-06-15T14:59:52.014Z,20.85
2019-06-15T15:04:46.080Z,21.12
2019-06-15T15:09:50.115Z,20.77
2019-06-15T15:14:56.258Z,21.24
2019-06-15T15:19:59.050Z,21.41
2019-06-15T15:25:02.756Z,21.27
2019-06-15T15:30:06.640Z,21.57
2019-06-15T15:35:10.107Z,21.04
2019-06-15T15:40:16.517Z,20.95
2019-06-15T15:45:19.228Z,21.09
2019-06-15T15:50:22.908Z,21.36
2019-06-15T15:55:26.492Z,21.43
2019-06-15T16:00:32.150Z,21.66
2019-06-15T16:05:37.082Z,21.83
2019-06-15T16:10:40.655Z,22.05
2019-06-15T16:15:46.124Z,21.99
2019-06-15T16:20:49.281Z,21.91
2019-06-15T16:25:53.616Z,21.72
2019-06-15T16:31:06.707Z,21.25
2019-06-15T16:36:01.588Z,21.74
2019-06-15T16:41:04.780Z,21.73
2019-06-15T16:46:09.227Z,22.24
2019-06-15T16:51:12.128Z,22.43
2019-06-15T16:56:16.601Z,23.00
2019-06-15T17:01:20.123Z,23.42
2019-06-15T17:06:26.674Z,23.44
2019-06-15T17:11:29.067Z,22.89
2019-06-15T17:16:32.393Z,22.83
2019-06-15T17:21:37.239Z,22.97
2019-06-15T17:26:40.466Z,23.31
2019-06-15T17:31:42.732Z,22.95
2019-06-15T17:36:47.679Z,22.80
2019-06-15T17:41:50.884Z,22.29
2019-06-15T17:46:56.603Z,21.89
2019-06-15T17:52:00.076Z,21.32
2019-06-15T17:57:06.056Z,21.13
2019-06-15T18:02:11.551Z,21.02
2019-06-15T18:07:16.693Z,20.90
2019-06-15T18:12:20.223Z,20.92
2019-06-15T18:17:23.289Z,20.82
2019-06-15T18:22:26.957Z,20.70
2019-06-15T18:27:30.066Z,20.60
2019-06-15T18:32:33.752Z,20.76
2019-06-15T18:37:37.260Z,20.91
2019-06-15T18:42:40.682Z,20.81
2019-06-15T18:47:44.317Z,20.71
2019-06-15T18:52:47.384Z,20.23
2019-06-15T18:57:50.303Z,20.05
2019-06-15T19:02:56.186Z,19.90
2019-06-15T19:07:59.252Z,19.76
2019-06-15T19:13:03.678Z,19.82
2019-06-15T19:18:07.711Z,19.73
2019-06-15T19:23:11.325Z,19.75
2019-06-15T19:28:16.540Z,19.42
2019-06-15T19:33:20.158Z,19.18
2019-06-15T19:38:22.856Z,19.06
2019-06-15T19:43:25.640Z,19.31
2019-06-15T19:48:28.953Z,19.27
2019-06-15T19:53:31.905Z,19.28
2019-06-15T19:58:35.396Z,19.03
2019-06-15T20:03:38.837Z,18.81
2019-06-15T20:08:42.467Z,18.93
2019-06-15T20:13:47.389Z,18.89
2019-06-15T20:18:50.900Z,18.78
2019-06-15T20:23:56.448Z,18.62
2019-06-15T20:28:59.146Z,18.75
2019-06-15T20:34:02.535Z,18.08
2019-06-15T20:39:07.284Z,18.22
2019-06-15T20:44:10.358Z,18.23
2019-06-15T20:49:13.324Z,18.25
2019-06-15T20:54:16.932Z,17.51
2019-06-15T20:59:20.525Z,17.79
2019-06-15T21:04:23.845Z,17.62
2019-06-15T21:09:27.729Z,17.86
2019-06-15T21:14:30.280Z,17.84
2019-06-15T21:19:35.949Z,17.88
2019-06-15T21:24:38.958Z,17.44
2019-06-15T21:29:42.172Z,17.47
2019-06-15T21:34:46.463Z,17.56
2019-06-15T21:39:49.063Z,17.46
2019-06-15T21:44:52.065Z,17.18
2019-06-15T21:49:55.995Z,17.49
2019-06-15T21:54:59.139Z,17.56
2019-06-15T22:00:02.125Z,17.57
2019-06-15T22:05:07.102Z,17.58
2019-06-15T22:10:11.035Z,17.52
2019-06-15T22:15:16.116Z,17.54
2019-06-15T22:20:19.807Z,17.47
2019-06-15T22:25:22.840Z,17.25
2019-06-15T22:30:27.709Z,17.22
2019-06-15T22:35:31.056Z,17.34
2019-06-15T22:40:36.309Z,17.40
2019-06-15T22:45:39.532Z,17.35
2019-06-15T22:50:42.841Z,17.24
2019-06-15T22:55:46.494Z,17.33
2019-06-15T23:00:49.896Z,17.17
2019-06-15T23:05:53.246Z,17.35
2019-06-15T23:10:57.291Z,17.13
2019-06-15T23:16:00.742Z,17.14
2019-06-15T23:21:06.226Z,17.26
2019-06-15T23:26:09.182Z,17.22
2019-06-15T23:31:12.628Z,17.31
2019-06-15T23:36:21.016Z,17.43
2019-06-15T23:41:24.266Z,17.38
2019-06-15T23:46:27.887Z,17.36
2019-06-15T23:51:31.160Z,17.35
2019-06-15T23:56:36.696Z,17.32
